Time;durP1;ratioP1;P1;durP2;ratioP2;P2;SDS_P1;SDS_P2;PMS_P1;PMS_P2;Temp;Humidity;BMP_temperature;BMP_pressure;BME280_temperature;BME280_humidity;BME280_pressure;Samples;Min_cycle;Max_cycle;Signal;HPM_P1;HPM_P2
2022/01/18 00:01:24;;;;;;;13.35;3.67;;;8.10;95.70;;;;;;9181798;19;20464;-74
2022/01/18 00:04:30;;;;;;;10.75;2.30;;;8.10;95.70;;;;;;9184490;19;20460;-74
2022/01/18 00:07:37;;;;;;;10.38;2.40;;;8.10;95.70;;;;;;9185196;19;20850;-74
2022/01/18 00:10:47;;;;;;;15.93;3.60;;;8.10;95.70;;;;;;9185256;19;20037;-74
2022/01/18 00:14:06;;;;;;;12.07;2.63;;;8.10;95.70;;;;;;9185129;19;20019;-74
2022/01/18 00:17:39;;;;;;;10.68;2.70;;;8.10;95.80;;;;;;9183587;19;20022;-74
2022/01/18 00:20:55;;;;;;;11.48;2.65;;;8.10;95.70;;;;;;9186014;19;20015;-74
2022/01/18 00:24:24;;;;;;;12.93;2.40;;;8.10;95.80;;;;;;9184319;19;20014;-74
2022/01/18 00:27:29;;;;;;;13.55;3.25;;;8.10;95.80;;;;;;9181272;19;20032;-74
2022/01/18 00:31:00;;;;;;;12.68;3.03;;;8.10;96.10;;;;;;9182034;19;20022;-74
2022/01/18 00:34:10;;;;;;;11.02;2.65;;;8.10;95.90;;;;;;9182549;19;20014;-75
2022/01/18 00:40:37;;;;;;;11.88;2.28;;;8.10;95.80;;;;;;9181551;19;20010;-75
2022/01/18 00:43:43;;;;;;;11.15;2.63;;;8.10;95.80;;;;;;9184570;19;20576;-74
2022/01/18 00:46:57;;;;;;;13.30;2.72;;;8.10;95.80;;;;;;9181686;19;20017;-74
2022/01/18 00:50:03;;;;;;;11.25;2.38;;;8.10;95.80;;;;;;9184587;19;20082;-75
2022/01/18 00:53:17;;;;;;;11.10;2.63;;;8.10;95.80;;;;;;9177316;19;20047;-75
2022/01/18 00:56:26;;;;;;;13.75;2.90;;;8.20;95.80;;;;;;9181053;19;20011;-75
2022/01/18 00:59:33;;;;;;;11.90;3.20;;;8.20;95.90;;;;;;9180869;19;20099;-74
2022/01/18 01:02:43;;;;;;;12.38;2.90;;;8.20;95.90;;;;;;9181986;19;20023;-74
2022/01/18 01:05:51;;;;;;;11.13;3.03;;;8.20;95.90;;;;;;9184285;19;20479;-74
2022/01/18 01:08:56;;;;;;;10.15;3.47;;;8.20;95.90;;;;;;9183279;19;20018;-74
2022/01/18 01:12:02;;;;;;;14.02;3.20;;;8.20;95.90;;;;;;9181867;19;20020;-74
2022/01/18 01:15:13;;;;;;;14.35;2.92;;;8.20;95.90;;;;;;9180462;19;20480;-74
2022/01/18 01:18:37;;;;;;;12.38;3.28;;;8.20;95.90;;;;;;9182086;19;20013;-75
2022/01/18 01:32:19;;;;;;;10.82;2.28;;;8.20;95.90;;;;;;9181764;19;20543;-74
2022/01/18 01:35:44;;;;;;;9.15;2.00;;;8.20;95.90;;;;;;9179544;19;20015;-74
2022/01/18 01:42:29;;;;;;;8.23;2.17;;;8.20;95.90;;;;;;9182891;19;19922;-74
2022/01/18 01:45:35;;;;;;;7.53;2.35;;;8.20;95.90;;;;;;9183179;19;20044;-74
2022/01/18 01:48:45;;;;;;;11.55;2.47;;;8.20;95.90;;;;;;9182415;19;20018;-74
2022/01/18 01:52:00;;;;;;;10.52;3.17;;;8.20;95.90;;;;;;9182005;19;20019;-73
2022/01/18 01:55:06;;;;;;;7.10;2.05;;;8.30;95.90;;;;;;9177677;19;20011;-74
2022/01/18 01:58:11;;;;;;;13.05;2.33;;;8.20;95.90;;;;;;9179790;19;20403;-74
2022/01/18 02:01:17;;;;;;;10.55;2.17;;;8.20;95.90;;;;;;9179644;19;20015;-74
2022/01/18 02:04:25;;;;;;;8.95;2.75;;;8.30;95.90;;;;;;9180604;19;20011;-73
2022/01/18 02:07:33;;;;;;;10.18;2.95;;;8.30;95.90;;;;;;9180774;19;20022;-74
2022/01/18 02:10:40;;;;;;;10.85;2.67;;;8.30;95.90;;;;;;9181555;19;20026;-74
2022/01/18 02:13:45;;;;;;;11.52;2.13;;;8.30;95.90;;;;;;9178337;19;20475;-74
2022/01/18 02:23:35;;;;;;;9.32;2.33;;;8.30;95.90;;;;;;9176056;19;20015;-74
2022/01/18 02:26:44;;;;;;;9.77;2.22;;;8.30;95.90;;;;;;9179283;19;20047;-73
2022/01/18 02:29:51;;;;;;;12.43;3.65;;;8.30;95.90;;;;;;9180734;19;20019;-74
2022/01/18 02:32:56;;;;;;;13.90;2.95;;;8.30;95.90;;;;;;9182504;19;20464;-74
2022/01/18 02:36:09;;;;;;;9.85;2.58;;;8.30;95.90;;;;;;9177269;19;20014;-73
2022/01/18 02:39:20;;;;;;;11.10;2.55;;;8.30;95.90;;;;;;9176313;19;20514;-76
2022/01/18 02:42:40;;;;;;;13.23;2.55;;;8.30;95.90;;;;;;9177856;19;20017;-74
2022/01/18 02:45:45;;;;;;;12.20;2.92;;;8.30;95.90;;;;;;9178086;19;20482;-76
2022/01/18 02:48:54;;;;;;;10.20;2.13;;;8.30;95.90;;;;;;9179897;19;20024;-74
2022/01/18 02:52:11;;;;;;;11.00;2.85;;;8.30;95.90;;;;;;9181687;19;20799;-74
2022/01/18 02:55:18;;;;;;;9.68;2.25;;;8.30;95.90;;;;;;9177215;19;20063;-74
2022/01/18 02:58:29;;;;;;;12.90;2.28;;;8.30;95.90;;;;;;9177358;19;20007;-73
2022/01/18 03:04:52;;;;;;;14.82;2.97;;;8.30;95.90;;;;;;9179333;19;20019;-74
2022/01/18 03:08:00;;;;;;;9.75;2.55;;;8.30;95.90;;;;;;9176541;19;20022;-74
2022/01/18 03:11:05;;;;;;;13.30;2.80;;;8.30;95.90;;;;;;9178040;19;20048;-74
2022/01/18 03:14:11;;;;;;;11.18;2.80;;;8.30;95.90;;;;;;9178949;19;20368;-74
2022/01/18 03:17:16;;;;;;;12.20;3.25;;;8.30;95.90;;;;;;9179089;19;20345;-74
2022/01/18 03:20:27;;;;;;;9.95;2.42;;;8.30;95.90;;;;;;9179415;19;20038;-74
2022/01/18 03:23:35;;;;;;;13.50;2.80;;;8.30;95.90;;;;;;9176122;19;20025;-74
2022/01/18 03:30:03;;;;;;;11.93;2.55;;;8.30;95.90;;;;;;9177322;19;20011;-74
2022/01/18 03:33:15;;;;;;;14.60;2.67;;;8.30;95.90;;;;;;9177081;19;20022;-74
2022/01/18 03:36:20;;;;;;;10.77;2.60;;;8.30;95.90;;;;;;9181887;19;20034;-74
2022/01/18 03:39:31;;;;;;;10.82;2.50;;;8.30;95.90;;;;;;9189966;19;20024;-74
2022/01/18 03:42:40;;;;;;;15.57;3.22;;;8.30;95.90;;;;;;9188219;19;20479;-73
2022/01/18 03:45:48;;;;;;;12.27;2.95;;;8.30;95.90;;;;;;9184483;19;20503;-74
2022/01/18 03:48:54;;;;;;;12.18;2.50;;;8.30;95.90;;;;;;9184292;19;20052;-74
2022/01/18 03:51:59;;;;;;;10.85;2.65;;;8.30;95.90;;;;;;9185239;19;20018;-74
2022/01/18 03:55:12;;;;;;;11.10;2.88;;;8.30;95.90;;;;;;9183690;19;20022;-74
2022/01/18 03:58:21;;;;;;;10.30;2.28;;;8.30;95.90;;;;;;9186688;19;20400;-74
2022/01/18 04:01:26;;;;;;;12.32;2.70;;;8.30;95.90;;;;;;9187059;19;20526;-74
2022/01/18 04:04:33;;;;;;;7.35;2.20;;;8.30;95.90;;;;;;9185659;19;20007;-75
2022/01/18 04:07:39;;;;;;;8.57;2.30;;;8.20;95.90;;;;;;9183618;19;20018;-74
2022/01/18 04:10:49;;;;;;;9.65;2.55;;;8.30;95.90;;;;;;9183191;19;20364;-74
2022/01/18 04:13:54;;;;;;;11.70;3.30;;;8.30;95.90;;;;;;9184966;19;20011;-75
2022/01/18 04:17:06;;;;;;;10.18;2.30;;;8.30;95.90;;;;;;9183647;19;20066;-74
2022/01/18 04:27:01;;;;;;;12.07;3.28;;;8.20;95.90;;;;;;9185997;19;20018;-74
2022/01/18 04:30:07;;;;;;;11.77;2.65;;;8.20;95.90;;;;;;9186250;19;20031;-74
2022/01/18 04:33:18;;;;;;;13.05;2.45;;;8.20;95.90;;;;;;9185816;19;20460;-75
2022/01/18 04:36:24;;;;;;;8.70;1.98;;;8.20;95.90;;;;;;9181480;19;20015;-74
2022/01/18 04:39:34;;;;;;;9.32;1.90;;;8.20;95.90;;;;;;9183500;19;20018;-74
2022/01/18 04:43:03;;;;;;;9.60;1.77;;;8.10;95.90;;;;;;9182716;19;20359;-75
2022/01/18 04:49:27;;;;;;;6.82;1.95;;;8.10;95.90;;;;;;9184993;19;20469;-74
2022/01/18 04:52:35;;;;;;;4.50;1.42;;;8.10;95.90;;;;;;9185344;19;20487;-74
2022/01/18 04:55:43;;;;;;;5.57;1.70;;;8.10;95.90;;;;;;9181452;19;20022;-74
2022/01/18 04:58:50;;;;;;;5.65;1.55;;;8.10;95.90;;;;;;9185292;19;21039;-74
2022/01/18 05:01:55;;;;;;;5.05;1.85;;;8.10;95.90;;;;;;9180464;19;20078;-74
2022/01/18 05:05:02;;;;;;;5.15;1.80;;;8.10;95.90;;;;;;9180880;19;20532;-74
2022/01/18 05:08:13;;;;;;;7.60;1.80;;;8.00;95.80;;;;;;9181332;19;20025;-75
2022/01/18 05:11:22;;;;;;;8.07;2.10;;;8.10;95.90;;;;;;9183320;19;20073;-75
2022/01/18 05:14:32;;;;;;;8.38;2.42;;;8.00;95.80;;;;;;9183475;19;20015;-74
2022/01/18 05:17:57;;;;;;;5.65;1.98;;;8.00;95.80;;;;;;9184606;19;20026;-74
2022/01/18 05:21:21;;;;;;;4.63;1.60;;;8.00;95.80;;;;;;9187003;19;20018;-75
2022/01/18 05:24:27;;;;;;;7.07;2.25;;;8.00;95.80;;;;;;9183354;19;20029;-74
2022/01/18 05:27:32;;;;;;;5.85;1.73;;;8.00;95.80;;;;;;9181406;19;20010;-74
2022/01/18 05:30:40;;;;;;;6.10;1.60;;;8.00;95.80;;;;;;9179945;19;20022;-75
2022/01/18 05:33:47;;;;;;;5.68;1.65;;;8.00;95.80;;;;;;9179627;19;20395;-74
2022/01/18 05:36:52;;;;;;;5.60;1.65;;;8.00;95.90;;;;;;9185438;19;20371;-74
2022/01/18 05:39:57;;;;;;;5.93;1.95;;;7.90;95.80;;;;;;9182327;19;20033;-74
2022/01/18 05:43:02;;;;;;;6.55;2.33;;;7.90;95.80;;;;;;9182439;19;20018;-74
2022/01/18 05:46:11;;;;;;;5.18;1.80;;;7.90;95.80;;;;;;9181060;19;20483;-74
2022/01/18 05:49:16;;;;;;;4.88;1.40;;;7.90;95.80;;;;;;9180766;19;20011;-74
2022/01/18 05:52:22;;;;;;;6.80;1.90;;;7.90;95.90;;;;;;9180327;19;20025;-74
2022/01/18 05:55:27;;;;;;;4.43;1.48;;;7.90;95.80;;;;;;9177205;19;20480;-74
2022/01/18 05:58:36;;;;;;;4.75;1.65;;;7.90;95.80;;;;;;9178859;19;20029;-74
2022/01/18 06:01:50;;;;;;;4.90;1.80;;;7.90;95.80;;;;;;9183832;19;20014;-74
2022/01/18 06:08:14;;;;;;;4.93;1.50;;;7.80;95.80;;;;;;9180981;19;20048;-74
2022/01/18 06:11:22;;;;;;;4.35;1.90;;;7.80;95.80;;;;;;9180851;19;20044;-74
2022/01/18 06:14:27;;;;;;;3.30;1.63;;;7.80;95.80;;;;;;9177849;19;20495;-73
2022/01/18 06:17:35;;;;;;;2.63;1.48;;;7.80;95.80;;;;;;9179190;19;20078;-74
2022/01/18 06:20:42;;;;;;;4.70;1.60;;;7.80;95.80;;;;;;9179121;19;20021;-74
2022/01/18 06:23:49;;;;;;;5.07;1.77;;;7.80;95.90;;;;;;9180604;19;20011;-74
2022/01/18 06:26:54;;;;;;;4.88;1.90;;;7.80;95.80;;;;;;9179837;19;20018;-74
2022/01/18 06:30:02;;;;;;;6.00;1.45;;;7.80;95.80;;;;;;9180602;19;20051;-74
2022/01/18 06:33:13;;;;;;;4.32;1.58;;;7.80;95.90;;;;;;9178409;19;20018;-74
2022/01/18 06:36:22;;;;;;;4.38;1.30;;;7.80;95.80;;;;;;9178362;19;20375;-74
2022/01/18 06:39:34;;;;;;;4.45;1.60;;;7.80;95.80;;;;;;9177580;19;20329;-74
2022/01/18 06:42:45;;;;;;;6.13;1.88;;;7.80;95.80;;;;;;9178562;19;20019;-74
2022/01/18 06:45:51;;;;;;;5.88;1.98;;;7.80;95.80;;;;;;9181258;19;20501;-74
2022/01/18 06:49:02;;;;;;;4.68;2.00;;;7.80;95.80;;;;;;9178859;19;20078;-74
2022/01/18 06:52:17;;;;;;;5.90;2.80;;;7.80;95.80;;;;;;9179827;19;20734;-74
2022/01/18 06:55:22;;;;;;;5.10;1.70;;;7.80;95.80;;;;;;9177153;19;20238;-73
2022/01/18 06:58:28;;;;;;;6.07;1.98;;;7.80;95.90;;;;;;9176667;19;20018;-74
2022/01/18 07:01:33;;;;;;;6.15;1.98;;;7.80;95.90;;;;;;9178805;19;20387;-74
2022/01/18 07:04:42;;;;;;;5.50;1.85;;;7.80;95.90;;;;;;9177055;19;20014;-74
2022/01/18 07:07:50;;;;;;;4.43;2.05;;;7.80;95.90;;;;;;9177115;19;20010;-74
2022/01/18 07:11:02;;;;;;;6.13;2.67;;;7.80;95.90;;;;;;9182038;19;20022;-74
2022/01/18 07:14:10;;;;;;;9.35;3.13;;;7.80;95.90;;;;;;9183451;19;20782;-75
2022/01/18 07:17:15;;;;;;;9.40;2.55;;;7.70;95.80;;;;;;9186360;19;20022;-73
2022/01/18 07:20:24;;;;;;;8.02;2.55;;;7.80;95.90;;;;;;9178435;19;20904;-74
2022/01/18 07:23:30;;;;;;;8.82;3.55;;;7.70;95.90;;;;;;9183265;19;20019;-75
2022/01/18 07:26:40;;;;;;;6.85;2.35;;;7.70;95.90;;;;;;9182728;19;20046;-75
2022/01/18 07:29:46;;;;;;;4.88;1.98;;;7.70;96.10;;;;;;9182030;19;20010;-75
2022/01/18 07:32:53;;;;;;;5.95;2.47;;;7.80;95.90;;;;;;9184940;19;20515;-73
2022/01/18 07:36:01;;;;;;;5.18;1.95;;;7.70;95.90;;;;;;9186180;19;20026;-73
2022/01/18 07:39:06;;;;;;;5.35;2.20;;;7.70;95.90;;;;;;9187169;19;20006;-73
2022/01/18 07:42:12;;;;;;;4.85;2.22;;;7.70;95.90;;;;;;9181756;19;20018;-73
2022/01/18 07:45:17;;;;;;;7.43;2.30;;;7.70;95.90;;;;;;9183014;19;20026;-72
2022/01/18 07:48:24;;;;;;;4.93;2.33;;;7.70;95.90;;;;;;9184893;19;20018;-73
2022/01/18 07:51:31;;;;;;;4.85;2.10;;;7.70;95.90;;;;;;9184281;19;20019;-73
2022/01/18 07:54:36;;;;;;;5.45;2.42;;;7.70;95.90;;;;;;9183188;19;20017;-73
2022/01/18 07:57:43;;;;;;;5.00;2.42;;;7.70;95.90;;;;;;9185728;19;20014;-73
2022/01/18 08:00:49;;;;;;;5.22;2.40;;;7.70;95.90;;;;;;9185540;19;20468;-73
2022/01/18 08:03:55;;;;;;;3.38;2.15;;;7.70;95.90;;;;;;9183476;19;20022;-73
2022/01/18 08:07:02;;;;;;;4.05;2.20;;;7.70;95.90;;;;;;9183110;19;20078;-72
2022/01/18 08:10:12;;;;;;;3.25;2.00;;;7.70;95.90;;;;;;9181630;19;20110;-72
2022/01/18 08:13:17;;;;;;;4.45;2.17;;;7.70;95.90;;;;;;9184330;19;20026;-72
2022/01/18 08:16:46;;;;;;;4.00;2.30;;;7.70;95.90;;;;;;9184134;19;20021;-73
2022/01/18 08:19:51;;;;;;;5.18;2.08;;;7.70;95.90;;;;;;9185531;19;20625;-72
2022/01/18 08:22:59;;;;;;;4.25;2.17;;;7.70;95.90;;;;;;9184528;19;20022;-73
2022/01/18 08:26:04;;;;;;;3.13;1.58;;;7.70;95.90;;;;;;9182788;19;20010;-72
2022/01/18 08:29:12;;;;;;;2.20;1.33;;;7.70;95.90;;;;;;9180613;19;20015;-73
2022/01/18 08:32:17;;;;;;;3.88;1.33;;;7.70;95.90;;;;;;9182603;19;20014;-72
2022/01/18 08:35:23;;;;;;;3.58;1.48;;;7.70;95.90;;;;;;9181062;19;20480;-72
2022/01/18 08:38:31;;;;;;;3.38;1.30;;;7.70;95.90;;;;;;9183956;19;20358;-72
2022/01/18 08:41:36;;;;;;;2.67;1.40;;;7.70;95.90;;;;;;9185312;19;20022;-73
2022/01/18 08:44:43;;;;;;;2.63;1.20;;;7.70;95.90;;;;;;9181898;19;20014;-73
2022/01/18 08:47:49;;;;;;;3.72;1.20;;;7.70;95.90;;;;;;9183920;19;20017;-73
2022/01/18 08:50:55;;;;;;;1.10;1.00;;;7.70;95.90;;;;;;9178941;19;20015;-73
2022/01/18 08:54:03;;;;;;;3.60;1.58;;;7.70;95.90;;;;;;9179000;19;20022;-73
2022/01/18 08:57:08;;;;;;;3.78;1.50;;;7.70;95.90;;;;;;9182624;19;20380;-73
2022/01/18 09:00:15;;;;;;;1.33;1.10;;;7.70;95.90;;;;;;9180407;19;20373;-74
2022/01/18 09:03:20;;;;;;;4.10;1.70;;;7.70;95.90;;;;;;9182246;19;20014;-74
2022/01/18 09:06:25;;;;;;;1.90;1.25;;;7.70;95.90;;;;;;9182174;19;20041;-73
2022/01/18 09:09:33;;;;;;;2.17;1.30;;;7.70;95.90;;;;;;9177349;19;20017;-74
2022/01/18 09:12:38;;;;;;;1.30;1.10;;;7.70;95.90;;;;;;9179336;19;20010;-74
2022/01/18 09:15:44;;;;;;;1.48;1.08;;;7.70;95.90;;;;;;9181206;19;20018;-73
2022/01/18 09:18:50;;;;;;;1.67;1.00;;;7.70;95.90;;;;;;9180315;19;20011;-73
2022/01/18 09:21:57;;;;;;;2.42;1.30;;;7.70;95.90;;;;;;9179724;19;20014;-73
2022/01/18 09:25:05;;;;;;;4.00;1.52;;;7.70;95.90;;;;;;9180813;19;20010;-74
2022/01/18 09:28:11;;;;;;;1.55;1.23;;;7.70;95.90;;;;;;9182215;19;20449;-74
2022/01/18 09:31:16;;;;;;;2.53;1.40;;;7.70;95.90;;;;;;9179315;19;20367;-73
2022/01/18 09:34:22;;;;;;;1.42;0.90;;;7.70;95.90;;;;;;9178044;19;20044;-75
2022/01/18 09:37:27;;;;;;;1.90;1.25;;;7.70;95.90;;;;;;9180178;19;20014;-75
2022/01/18 09:40:38;;;;;;;1.40;1.10;;;7.70;95.90;;;;;;9173181;19;20014;-75
2022/01/18 09:43:44;;;;;;;1.10;0.90;;;7.80;95.90;;;;;;9181520;19;20475;-75
2022/01/18 09:46:52;;;;;;;1.73;1.30;;;7.80;95.90;;;;;;9184388;19;20054;-75
2022/01/18 09:49:57;;;;;;;1.80;1.15;;;7.80;95.90;;;;;;9181616;19;20348;-75
2022/01/18 09:53:02;;;;;;;1.23;0.90;;;7.80;95.90;;;;;;9176779;19;20048;-75
2022/01/18 09:56:11;;;;;;;1.90;1.27;;;7.80;95.90;;;;;;9180028;19;20015;-75
2022/01/18 09:59:16;;;;;;;1.95;1.25;;;7.80;95.90;;;;;;9178049;19;20011;-75
2022/01/18 10:02:21;;;;;;;2.70;1.52;;;7.80;95.90;;;;;;9182231;19;20025;-76
2022/01/18 10:05:29;;;;;;;3.83;1.42;;;7.80;95.90;;;;;;9182140;19;20476;-75
2022/01/18 10:08:35;;;;;;;1.50;1.10;;;7.90;96.00;;;;;;9179662;19;20018;-75
2022/01/18 10:12:02;;;;;;;2.25;1.38;;;7.90;96.00;;;;;;9182403;19;20038;-75
2022/01/18 10:15:08;;;;;;;1.65;1.20;;;8.00;96.00;;;;;;9181676;19;20046;-75
2022/01/18 10:18:13;;;;;;;1.63;1.23;;;8.00;96.00;;;;;;9179294;19;20021;-75
2022/01/18 10:21:29;;;;;;;1.70;1.30;;;8.00;96.00;;;;;;9177212;19;20019;-75
2022/01/18 10:24:34;;;;;;;1.83;1.27;;;8.10;96.00;;;;;;9179504;19;20017;-76
2022/01/18 10:27:41;;;;;;;1.52;1.00;;;8.10;96.00;;;;;;9179374;19;20368;-75
2022/01/18 10:30:49;;;;;;;1.35;0.90;;;8.10;96.00;;;;;;9177716;19;20107;-75
2022/01/18 10:34:22;;;;;;;0.85;0.80;;;8.10;96.00;;;;;;9180227;19;20082;-75
2022/01/18 10:37:29;;;;;;;1.52;1.10;;;8.10;95.90;;;;;;9180433;19;20007;-75
2022/01/18 10:40:36;;;;;;;0.75;0.60;;;8.20;96.00;;;;;;9181368;19;20018;-75
2022/01/18 10:43:43;;;;;;;0.80;0.60;;;8.20;96.00;;;;;;9178158;19;20017;-74
2022/01/18 10:46:51;;;;;;;0.85;0.73;;;8.30;96.00;;;;;;9185776;19;20352;-75
2022/01/18 10:49:56;;;;;;;0.80;0.70;;;8.30;95.90;;;;;;9186898;19;20006;-75
2022/01/18 10:53:16;;;;;;;1.67;1.00;;;8.30;95.90;;;;;;9185700;19;20018;-75
2022/01/18 10:56:21;;;;;;;1.85;0.80;;;8.30;95.80;;;;;;9187553;19;20479;-73
2022/01/18 10:59:30;;;;;;;1.30;0.93;;;8.40;95.80;;;;;;9179112;19;20025;-73
2022/01/18 11:02:36;;;;;;;1.83;1.00;;;8.40;95.80;;;;;;9182455;19;20022;-72
2022/01/18 11:05:43;;;;;;;0.90;0.90;;;8.40;95.80;;;;;;9178893;19;20026;-73
2022/01/18 11:08:54;;;;;;;0.85;0.85;;;8.40;95.80;;;;;;9181135;19;20019;-72
2022/01/18 11:12:00;;;;;;;1.10;0.93;;;8.40;95.80;;;;;;9181101;19;20030;-72
2022/01/18 11:15:15;;;;;;;1.80;1.27;;;8.50;95.80;;;;;;9183169;19;20022;-73
2022/01/18 11:18:28;;;;;;;1.15;1.00;;;8.50;95.70;;;;;;9179631;19;20033;-72
2022/01/18 11:21:33;;;;;;;1.02;0.93;;;8.50;95.70;;;;;;9183172;19;20384;-72
2022/01/18 11:24:41;;;;;;;1.20;1.10;;;8.50;95.70;;;;;;9184781;19;20014;-72
2022/01/18 11:27:49;;;;;;;2.42;1.25;;;8.50;95.60;;;;;;9188824;19;20798;-72
2022/01/18 11:30:56;;;;;;;1.65;1.08;;;8.50;95.60;;;;;;9182852;19;20490;-72
2022/01/18 11:34:03;;;;;;;1.20;1.10;;;8.50;95.60;;;;;;9183284;19;20376;-72
2022/01/18 11:37:17;;;;;;;1.30;0.80;;;8.50;95.60;;;;;;9187988;19;20480;-73
2022/01/18 11:40:28;;;;;;;0.70;0.70;;;8.50;95.50;;;;;;9182071;19;20015;-73
2022/01/18 11:43:38;;;;;;;0.80;0.80;;;8.50;95.50;;;;;;9184039;19;20074;-73
2022/01/18 11:46:52;;;;;;;1.27;0.90;;;8.50;95.40;;;;;;9187212;19;20426;-72
2022/01/18 11:49:57;;;;;;;1.10;1.00;;;8.50;95.40;;;;;;9187347;19;20021;-73
2022/01/18 11:53:26;;;;;;;1.02;0.93;;;8.50;95.50;;;;;;9183656;19;20007;-72
2022/01/18 11:56:36;;;;;;;1.23;0.90;;;8.50;95.40;;;;;;9182139;19;20117;-72
2022/01/18 11:59:43;;;;;;;1.90;1.00;;;8.40;95.40;;;;;;9181768;19;20007;-72
2022/01/18 12:02:55;;;;;;;1.35;1.00;;;8.50;95.40;;;;;;9184532;19;20040;-72
2022/01/18 12:06:02;;;;;;;1.20;1.05;;;8.40;95.40;;;;;;9179690;19;20145;-72
2022/01/18 12:09:38;;;;;;;1.70;1.10;;;8.40;95.40;;;;;;9182673;19;20400;-73
2022/01/18 12:12:54;;;;;;;1.73;1.10;;;8.40;95.30;;;;;;9183418;19;20022;-73
2022/01/18 12:16:01;;;;;;;2.13;1.17;;;8.40;95.40;;;;;;9178513;19;20799;-72
2022/01/18 12:19:10;;;;;;;2.03;1.60;;;8.40;95.40;;;;;;9176263;19;20361;-72
2022/01/18 12:22:15;;;;;;;2.30;1.33;;;8.40;95.40;;;;;;9181604;19;20019;-73
2022/01/18 12:25:30;;;;;;;1.67;1.33;;;8.40;95.40;;;;;;9176978;19;20015;-73
2022/01/18 12:29:19;;;;;;;2.05;1.40;;;8.30;95.40;;;;;;9176927;19;20006;-72
2022/01/18 12:35:51;;;;;;;1.67;1.30;;;8.30;95.40;;;;;;9174628;19;20371;-72
2022/01/18 12:39:00;;;;;;;2.22;1.45;;;8.30;95.40;;;;;;9178240;19;20018;-73
2022/01/18 12:42:24;;;;;;;2.40;1.52;;;8.30;95.40;;;;;;9178298;19;20086;-73
2022/01/18 12:45:28;;;;;;;1.85;1.60;;;8.30;95.40;;;;;;9176866;19;20037;-73
2022/01/18 12:48:33;;;;;;;;;;;8.30;95.50;;;;;;9179001;19;20122;-72
2022/01/18 12:51:41;;;;;;;3.05;1.77;;;8.20;95.40;;;;;;9175680;19;19922;-72
2022/01/18 12:54:48;;;;;;;1.75;1.40;;;8.30;95.50;;;;;;9174855;19;20025;-72
2022/01/18 12:58:00;;;;;;;2.65;1.85;;;8.20;95.50;;;;;;9173493;19;21793;-72
2022/01/18 13:01:08;;;;;;;5.63;2.13;;;8.20;95.40;;;;;;9172187;19;20488;-72
2022/01/18 13:04:13;;;;;;;5.47;2.22;;;8.20;95.40;;;;;;9176303;19;20018;-72
2022/01/18 13:07:20;;;;;;;3.13;1.75;;;8.20;95.40;;;;;;9176945;19;20022;-72
2022/01/18 13:10:37;;;;;;;3.13;1.80;;;8.20;95.50;;;;;;9177335;19;20023;-72
2022/01/18 13:13:48;;;;;;;3.08;1.77;;;8.20;95.40;;;;;;9176880;19;20023;-73
2022/01/18 13:23:45;;;;;;;4.10;1.80;;;8.20;95.50;;;;;;9171443;19;20058;-72
2022/01/18 13:26:55;;;;;;;3.05;2.00;;;8.20;95.50;;;;;;9175327;19;20022;-72
2022/01/18 13:30:08;;;;;;;3.85;2.03;;;8.20;95.50;;;;;;9175093;19;20014;-72
2022/01/18 13:33:18;;;;;;;3.25;1.90;;;8.20;95.50;;;;;;9175684;19;20025;-72
2022/01/18 13:36:24;;;;;;;2.67;2.00;;;8.20;95.50;;;;;;9177314;19;20033;-72
2022/01/18 13:39:35;;;;;;;5.57;2.03;;;8.20;95.50;;;;;;9174650;19;20029;-72
2022/01/18 13:42:45;;;;;;;3.40;2.03;;;8.20;95.50;;;;;;9177403;19;20021;-72
2022/01/18 13:45:52;;;;;;;4.53;2.03;;;8.20;95.50;;;;;;9171877;19;20380;-72
2022/01/18 13:49:06;;;;;;;5.40;2.05;;;8.20;95.80;;;;;;9169756;19;20109;-72
2022/01/18 13:52:14;;;;;;;3.53;1.95;;;8.20;95.50;;;;;;9172378;19;20025;-72
2022/01/18 13:55:30;;;;;;;2.92;1.70;;;8.20;95.50;;;;;;9169639;19;20014;-72
2022/01/18 13:58:39;;;;;;;3.25;1.80;;;8.20;95.50;;;;;;9174369;19;20026;-72
2022/01/18 14:01:44;;;;;;;5.55;1.95;;;8.20;95.50;;;;;;9173707;19;20030;-71
2022/01/18 14:05:07;;;;;;;3.97;1.70;;;8.20;95.50;;;;;;9175218;19;20108;-71
2022/01/18 14:08:12;;;;;;;3.35;1.52;;;8.20;95.50;;;;;;9174339;19;20476;-71
2022/01/18 14:11:23;;;;;;;3.28;1.80;;;8.20;95.50;;;;;;9173668;19;20023;-71
2022/01/18 14:14:30;;;;;;;4.57;1.95;;;8.20;95.50;;;;;;9173487;19;20014;-72
2022/01/18 14:17:35;;;;;;;5.43;1.88;;;8.20;95.50;;;;;;9171840;19;20023;-71
2022/01/18 14:20:41;;;;;;;5.82;2.22;;;8.20;95.50;;;;;;9170624;19;20018;-71
2022/01/18 14:23:46;;;;;;;4.10;2.10;;;8.20;95.50;;;;;;9174835;19;20033;-71
2022/01/18 14:27:08;;;;;;;2.85;1.75;;;8.20;95.40;;;;;;9171918;19;20068;-71
2022/01/18 14:30:21;;;;;;;3.38;2.00;;;8.20;95.50;;;;;;9173694;19;20022;-71
2022/01/18 14:33:26;;;;;;;3.60;2.03;;;8.20;95.40;;;;;;9174059;19;20026;-72
2022/01/18 14:36:31;;;;;;;5.07;2.10;;;8.10;95.40;;;;;;9171967;19;20022;-72
2022/01/18 14:39:36;;;;;;;4.63;1.95;;;8.10;95.40;;;;;;9169867;19;20018;-71
2022/01/18 14:42:48;;;;;;;3.65;2.13;;;8.20;95.40;;;;;;9169448;19;20026;-71
2022/01/18 14:46:02;;;;;;;5.80;2.63;;;8.10;95.40;;;;;;9166244;19;20026;-71
2022/01/18 14:49:12;;;;;;;4.47;2.33;;;8.10;95.40;;;;;;9171165;19;20030;-71
2022/01/18 14:52:17;;;;;;;5.70;2.20;;;8.10;95.40;;;;;;9169679;19;20018;-71
2022/01/18 14:55:25;;;;;;;9.27;2.63;;;8.10;95.40;;;;;;9172616;19;20018;-71
2022/01/18 14:58:33;;;;;;;8.35;2.60;;;8.10;95.40;;;;;;9172345;19;20015;-71
2022/01/18 15:01:40;;;;;;;7.10;3.08;;;8.10;95.40;;;;;;9171841;19;20363;-71
2022/01/18 15:04:46;;;;;;;7.93;3.05;;;8.10;95.40;;;;;;9170001;19;20022;-71
2022/01/18 15:07:51;;;;;;;5.97;2.72;;;8.10;95.40;;;;;;9168954;19;20051;-71
2022/01/18 15:10:56;;;;;;;6.93;3.25;;;8.10;95.40;;;;;;9169149;19;20026;-71
2022/01/18 15:14:04;;;;;;;6.93;3.78;;;8.10;95.40;;;;;;9171751;19;20055;-71
2022/01/18 15:17:09;;;;;;;8.93;4.03;;;8.10;95.40;;;;;;9170541;19;20480;-71
2022/01/18 15:20:14;;;;;;;6.53;3.45;;;8.10;95.40;;;;;;9173134;19;20018;-70
2022/01/18 15:23:19;;;;;;;7.43;3.70;;;8.00;95.40;;;;;;9171684;19;20306;-70
2022/01/18 15:26:31;;;;;;;9.00;3.88;;;8.00;95.40;;;;;;9172617;19;20015;-70
2022/01/18 15:29:41;;;;;;;9.00;3.97;;;8.10;95.40;;;;;;9167863;19;20021;-70
2022/01/18 15:32:47;;;;;;;10.77;4.03;;;8.10;95.40;;;;;;9175075;19;20456;-71
2022/01/18 15:35:52;;;;;;;12.50;4.15;;;8.00;95.40;;;;;;9179297;19;20011;-71
2022/01/18 15:38:58;;;;;;;10.82;3.67;;;8.00;95.40;;;;;;9184254;19;20010;-71
2022/01/18 15:42:03;;;;;;;9.48;4.05;;;8.00;95.40;;;;;;9180220;19;20011;-71
2022/01/18 15:45:13;;;;;;;8.40;4.13;;;8.00;95.30;;;;;;9175064;19;20033;-72
2022/01/18 15:48:19;;;;;;;6.43;3.92;;;8.00;95.30;;;;;;9177748;19;20014;-71
2022/01/18 15:51:28;;;;;;;7.55;4.22;;;7.90;95.30;;;;;;9176424;19;20011;-72
2022/01/18 15:54:33;;;;;;;10.82;4.97;;;8.00;95.30;;;;;;9175633;19;20392;-71
2022/01/18 15:57:38;;;;;;;11.25;4.32;;;7.90;95.30;;;;;;9182808;19;20789;-71
2022/01/18 16:00:47;;;;;;;8.40;4.45;;;7.90;95.30;;;;;;9180104;19;20018;-72
2022/01/18 16:03:53;;;;;;;11.55;4.50;;;7.90;95.30;;;;;;9178997;19;20698;-72
2022/01/18 16:06:58;;;;;;;8.20;4.47;;;7.80;95.30;;;;;;9177133;19;20052;-72
2022/01/18 16:10:04;;;;;;;10.85;4.43;;;7.80;95.30;;;;;;9175235;19;20015;-72
2022/01/18 16:13:12;;;;;;;10.27;4.45;;;7.90;95.60;;;;;;9180541;19;20086;-71
2022/01/18 16:16:20;;;;;;;10.70;4.82;;;7.80;95.30;;;;;;9182552;19;20014;-72
2022/01/18 16:19:28;;;;;;;10.82;5.20;;;7.80;95.30;;;;;;9183428;19;20010;-71
2022/01/18 16:22:33;;;;;;;10.77;4.90;;;7.80;95.30;;;;;;9176134;19;20877;-71
2022/01/18 16:25:38;;;;;;;11.68;4.90;;;7.80;95.30;;;;;;9183603;19;20472;-71
2022/01/18 16:28:43;;;;;;;8.85;4.90;;;7.80;95.30;;;;;;9179607;19;20051;-71
2022/01/18 16:31:51;;;;;;;10.90;4.75;;;7.70;95.30;;;;;;9179545;19;20022;-71
2022/01/18 16:34:56;;;;;;;8.82;4.50;;;7.70;95.30;;;;;;9181459;19;20019;-71
2022/01/18 16:38:02;;;;;;;8.20;5.55;;;7.70;95.30;;;;;;9184697;19;20025;-72
2022/01/18 16:41:07;;;;;;;11.13;5.43;;;7.70;95.40;;;;;;9181113;19;20023;-72
2022/01/18 16:44:13;;;;;;;11.68;4.80;;;7.70;95.30;;;;;;9181660;19;20495;-73
2022/01/18 16:47:22;;;;;;;7.38;4.82;;;7.70;95.30;;;;;;9179076;19;20474;-73
2022/01/18 16:50:27;;;;;;;10.43;5.13;;;7.70;95.40;;;;;;9181698;19;20472;-73
2022/01/18 16:53:34;;;;;;;12.75;5.28;;;7.70;95.40;;;;;;9171875;19;20014;-73
2022/01/18 16:56:40;;;;;;;8.23;4.57;;;7.70;95.30;;;;;;9175766;19;20021;-72
2022/01/18 16:59:45;;;;;;;11.32;5.70;;;7.60;95.30;;;;;;9177481;19;20033;-73
2022/01/18 17:02:54;;;;;;;7.53;4.75;;;7.70;95.40;;;;;;9179662;19;20026;-73
2022/01/18 17:06:00;;;;;;;9.93;4.97;;;7.60;95.30;;;;;;9180853;19;20503;-73
2022/01/18 17:09:06;;;;;;;13.00;5.40;;;7.60;95.30;;;;;;9178457;19;20388;-72
2022/01/18 17:12:12;;;;;;;12.52;5.45;;;7.60;95.30;;;;;;9178772;19;20010;-73
2022/01/18 17:15:17;;;;;;;11.38;5.60;;;7.60;95.30;;;;;;9177448;19;20014;-73
2022/01/18 17:18:25;;;;;;;10.93;6.13;;;7.60;95.30;;;;;;9179341;19;20014;-73
2022/01/18 17:21:30;;;;;;;9.77;5.85;;;7.50;95.30;;;;;;9179383;19;20739;-73
2022/01/18 17:24:37;;;;;;;14.52;6.75;;;7.50;95.30;;;;;;9176243;19;20022;-73
2022/01/18 17:27:44;;;;;;;11.90;5.65;;;7.60;95.30;;;;;;9173556;19;20018;-73